sensor_id;sensor_type;location;lat;lon;timestamp;pressure;altitude;pressure_sealevel;temperature;humidity
44457;BME280;30159;49.316;8.558;2023-04-02T00:01:15;99600.88;;;10.10;100.00
44457;BME280;30159;49.316;8.558;2023-04-02T00:04:10;99597.41;;;10.10;100.00
44457;BME280;30159;49.316;8.558;2023-04-02T00:06:38;99595.47;;;9.97;100.00
44457;BME280;30159;49.316;8.558;2023-04-02T00:09:28;99604.59;;;10.15;100.00
44457;BME280;30159;49.316;8.558;2023-04-02T00:11:57;99603.50;;;10.16;100.00
44457;BME280;30159;49.316;8.558;2023-04-02T00:14:30;99614.78;;;10.18;100.00
44457;BME280;30159;49.316;8.558;2023-04-02T00:17:00;99610.91;;;10.24;100.00
44457;BME280;30159;49.316;8.558;2023-04-02T00:19:30;99617.59;;;10.26;100.00
44457;BME280;30159;49.316;8.558;2023-04-02T00:22:01;99619.19;;;10.27;100.00
44457;BME280;30159;49.316;8.558;2023-04-02T00:24:28;99615.44;;;10.28;100.00
44457;BME280;30159;49.316;8.558;2023-04-02T00:26:55;99614.09;;;10.26;100.00
44457;BME280;30159;49.316;8.558;2023-04-02T00:29:22;99618.03;;;10.33;100.00
44457;BME280;30159;49.316;8.558;2023-04-02T00:31:51;99619.63;;;10.34;100.00
44457;BME280;30159;49.316;8.558;2023-04-02T00:34:20;99617.94;;;10.39;100.00
44457;BME280;30159;49.316;8.558;2023-04-02T00:36:48;99620.72;;;10.33;100.00
44457;BME280;30159;49.316;8.558;2023-04-02T00:39:18;99619.72;;;10.29;100.00
44457;BME280;30159;49.316;8.558;2023-04-02T00:41:46;99601.91;;;10.15;100.00
44457;BME280;30159;49.316;8.558;2023-04-02T00:44:15;99619.78;;;10.24;100.00
44457;BME280;30159;49.316;8.558;2023-04-02T00:46:48;99625.16;;;10.24;100.00
44457;BME280;30159;49.316;8.558;2023-04-02T00:49:28;99620.97;;;10.18;100.00
44457;BME280;30159;49.316;8.558;2023-04-02T00:51:56;99624.75;;;10.17;100.00
44457;BME280;30159;49.316;8.558;2023-04-02T00:54:27;99620.13;;;10.04;100.00
44457;BME280;30159;49.316;8.558;2023-04-02T00:56:56;99629.31;;;10.03;100.00
44457;BME280;30159;49.316;8.558;2023-04-02T00:59:26;99628.53;;;10.02;100.00
44457;BME280;30159;49.316;8.558;2023-04-02T01:01:57;99623.50;;;9.96;100.00
44457;BME280;30159;49.316;8.558;2023-04-02T01:04:31;99631.06;;;9.94;100.00
44457;BME280;30159;49.316;8.558;2023-04-02T01:07:01;99627.88;;;9.91;100.00
44457;BME280;30159;49.316;8.558;2023-04-02T01:09:51;99633.16;;;9.97;100.00
44457;BME280;30159;49.316;8.558;2023-04-02T01:12:43;99637.44;;;9.84;100.00
44457;BME280;30159;49.316;8.558;2023-04-02T01:15:17;99645.00;;;9.82;100.00
44457;BME280;30159;49.316;8.558;2023-04-02T01:17:54;99637.91;;;9.86;100.00
44457;BME280;30159;49.316;8.558;2023-04-02T01:23:31;99643.00;;;9.87;100.00
44457;BME280;30159;49.316;8.558;2023-04-02T01:26:09;99612.31;;;9.50;100.00
44457;BME280;30159;49.316;8.558;2023-04-02T01:28:52;99651.03;;;9.74;100.00
44457;BME280;30159;49.316;8.558;2023-04-02T01:31:22;99648.66;;;9.72;100.00
44457;BME280;30159;49.316;8.558;2023-04-02T01:33:49;99662.97;;;9.86;100.00
44457;BME280;30159;49.316;8.558;2023-04-02T01:36:21;99657.22;;;9.93;100.00
44457;BME280;30159;49.316;8.558;2023-04-02T01:38:55;99656.19;;;9.89;100.00
44457;BME280;30159;49.316;8.558;2023-04-02T01:41:31;99666.75;;;9.85;100.00
44457;BME280;30159;49.316;8.558;2023-04-02T01:44:04;99660.13;;;9.78;100.00
44457;BME280;30159;49.316;8.558;2023-04-02T01:46:33;99651.34;;;9.72;100.00
44457;BME280;30159;49.316;8.558;2023-04-02T01:49:08;99667.94;;;9.79;100.00
44457;BME280;30159;49.316;8.558;2023-04-02T01:51:39;99673.75;;;9.86;100.00
44457;BME280;30159;49.316;8.558;2023-04-02T01:54:07;99658.16;;;9.83;100.00
44457;BME280;30159;49.316;8.558;2023-04-02T01:56:34;99676.63;;;9.90;100.00
44457;BME280;30159;49.316;8.558;2023-04-02T01:59:03;99664.78;;;9.91;100.00
44457;BME280;30159;49.316;8.558;2023-04-02T02:01:34;99679.66;;;9.88;100.00
44457;BME280;30159;49.316;8.558;2023-04-02T02:04:02;99678.63;;;9.84;100.00
44457;BME280;30159;49.316;8.558;2023-04-02T02:06:29;99670.53;;;9.84;100.00
44457;BME280;30159;49.316;8.558;2023-04-02T02:08:58;99682.38;;;9.83;100.00
44457;BME280;30159;49.316;8.558;2023-04-02T02:11:29;99684.13;;;9.74;100.00
44457;BME280;30159;49.316;8.558;2023-04-02T02:13:58;99688.44;;;9.75;100.00
44457;BME280;30159;49.316;8.558;2023-04-02T02:16:28;99686.03;;;9.74;100.00
44457;BME280;30159;49.316;8.558;2023-04-02T02:18:58;99684.00;;;9.65;100.00
44457;BME280;30159;49.316;8.558;2023-04-02T02:21:33;99688.44;;;9.75;100.00
44457;BME280;30159;49.316;8.558;2023-04-02T02:24:04;99692.72;;;9.76;100.00
44457;BME280;30159;49.316;8.558;2023-04-02T02:26:33;99698.03;;;9.81;100.00
44457;BME280;30159;49.316;8.558;2023-04-02T02:29:02;99698.41;;;9.94;100.00
44457;BME280;30159;49.316;8.558;2023-04-02T02:31:34;99690.97;;;9.85;100.00
44457;BME280;30159;49.316;8.558;2023-04-02T02:34:05;99692.50;;;9.91;100.00
44457;BME280;30159;49.316;8.558;2023-04-02T02:36:37;99703.88;;;9.88;100.00
44457;BME280;30159;49.316;8.558;2023-04-02T02:39:13;99702.06;;;9.84;100.00
44457;BME280;30159;49.316;8.558;2023-04-02T02:41:44;99707.06;;;9.90;100.00
44457;BME280;30159;49.316;8.558;2023-04-02T02:44:18;99700.81;;;9.76;100.00
44457;BME280;30159;49.316;8.558;2023-04-02T02:46:51;99716.16;;;9.76;100.00
44457;BME280;30159;49.316;8.558;2023-04-02T02:49:22;99715.38;;;9.75;100.00
44457;BME280;30159;49.316;8.558;2023-04-02T02:51:56;99727.19;;;9.79;100.00
44457;BME280;30159;49.316;8.558;2023-04-02T02:54:24;99723.38;;;9.80;100.00
44457;BME280;30159;49.316;8.558;2023-04-02T02:56:54;99711.38;;;9.73;100.00
44457;BME280;30159;49.316;8.558;2023-04-02T02:59:23;99719.09;;;9.79;100.00
44457;BME280;30159;49.316;8.558;2023-04-02T03:01:52;99634.63;;;9.32;100.00
44457;BME280;30159;49.316;8.558;2023-04-02T03:04:19;99712.31;;;9.82;100.00
44457;BME280;30159;49.316;8.558;2023-04-02T03:06:48;99716.84;;;9.86;100.00
44457;BME280;30159;49.316;8.558;2023-04-02T03:09:21;99720.97;;;9.79;100.00
44457;BME280;30159;49.316;8.558;2023-04-02T03:11:54;99716.25;;;9.89;100.00
44457;BME280;30159;49.316;8.558;2023-04-02T03:14:29;99730.44;;;9.76;100.00
44457;BME280;30159;49.316;8.558;2023-04-02T03:17:03;99729.91;;;9.74;100.00
44457;BME280;30159;49.316;8.558;2023-04-02T03:19:35;99737.34;;;9.82;100.00
44457;BME280;30159;49.316;8.558;2023-04-02T03:22:07;99739.78;;;9.84;100.00
44457;BME280;30159;49.316;8.558;2023-04-02T03:24:42;99742.50;;;9.79;100.00
44457;BME280;30159;49.316;8.558;2023-04-02T03:27:15;99740.06;;;9.82;100.00
44457;BME280;30159;49.316;8.558;2023-04-02T03:29:46;99741.13;;;9.81;100.00
44457;BME280;30159;49.316;8.558;2023-04-02T03:32:20;99746.22;;;9.83;100.00
44457;BME280;30159;49.316;8.558;2023-04-02T03:34:51;99753.06;;;9.75;100.00
44457;BME280;30159;49.316;8.558;2023-04-02T03:37:22;99753.00;;;9.80;100.00
44457;BME280;30159;49.316;8.558;2023-04-02T03:39:54;99764.66;;;9.76;100.00
44457;BME280;30159;49.316;8.558;2023-04-02T03:42:24;99745.19;;;9.60;100.00
44457;BME280;30159;49.316;8.558;2023-04-02T03:44:53;99756.63;;;9.70;100.00
44457;BME280;30159;49.316;8.558;2023-04-02T03:47:29;99764.88;;;9.79;100.00
44457;BME280;30159;49.316;8.558;2023-04-02T03:49:59;99768.06;;;9.81;100.00
44457;BME280;30159;49.316;8.558;2023-04-02T03:52:28;99766.19;;;9.82;100.00
44457;BME280;30159;49.316;8.558;2023-04-02T03:54:57;99726.13;;;9.56;100.00
44457;BME280;30159;49.316;8.558;2023-04-02T03:57:30;99769.22;;;9.75;100.00
44457;BME280;30159;49.316;8.558;2023-04-02T04:00:00;99602.94;;;8.62;100.00
44457;BME280;30159;49.316;8.558;2023-04-02T04:02:38;99787.28;;;9.75;100.00
44457;BME280;30159;49.316;8.558;2023-04-02T04:05:18;99789.69;;;9.76;100.00
44457;BME280;30159;49.316;8.558;2023-04-02T04:07:48;99785.66;;;9.74;100.00
44457;BME280;30159;49.316;8.558;2023-04-02T04:10:19;99790.19;;;9.78;100.00
44457;BME280;30159;49.316;8.558;2023-04-02T04:12:50;99788.81;;;9.81;100.00
44457;BME280;30159;49.316;8.558;2023-04-02T04:15:21;99793.69;;;9.79;100.00
44457;BME280;30159;49.316;8.558;2023-04-02T04:17:54;99791.22;;;9.82;100.00
44457;BME280;30159;49.316;8.558;2023-04-02T04:20:29;99803.81;;;9.87;100.00
44457;BME280;30159;49.316;8.558;2023-04-02T04:23:08;99796.03;;;9.85;100.00
44457;BME280;30159;49.316;8.558;2023-04-02T04:25:36;99800.16;;;9.78;100.00
44457;BME280;30159;49.316;8.558;2023-04-02T04:28:12;99807.31;;;9.87;100.00
44457;BME280;30159;49.316;8.558;2023-04-02T04:30:48;99810.00;;;9.87;100.00
44457;BME280;30159;49.316;8.558;2023-04-02T04:33:20;99808.56;;;9.95;100.00
44457;BME280;30159;49.316;8.558;2023-04-02T04:35:51;99810.44;;;9.95;100.00
44457;BME280;30159;49.316;8.558;2023-04-02T04:38:23;99817.50;;;9.90;100.00
44457;BME280;30159;49.316;8.558;2023-04-02T04:40:55;99800.09;;;9.83;100.00
44457;BME280;30159;49.316;8.558;2023-04-02T04:43:29;99812.41;;;9.89;100.00
44457;BME280;30159;49.316;8.558;2023-04-02T04:46:01;99826.84;;;9.98;100.00
44457;BME280;30159;49.316;8.558;2023-04-02T04:48:35;99829.63;;;9.93;100.00
44457;BME280;30159;49.316;8.558;2023-04-02T04:51:04;99839.53;;;9.98;100.00
44457;BME280;30159;49.316;8.558;2023-04-02T04:53:43;99847.03;;;10.01;100.00
44457;BME280;30159;49.316;8.558;2023-04-02T04:56:11;99848.63;;;10.02;100.00
44457;BME280;30159;49.316;8.558;2023-04-02T04:58:41;99851.53;;;10.05;100.00
44457;BME280;30159;49.316;8.558;2023-04-02T05:01:13;99830.41;;;9.94;100.00
44457;BME280;30159;49.316;8.558;2023-04-02T05:03:45;99860.59;;;10.15;100.00
44457;BME280;30159;49.316;8.558;2023-04-02T05:06:24;99862.09;;;10.21;100.00
44457;BME280;30159;49.316;8.558;2023-04-02T05:09:00;99839.09;;;10.09;100.00
44457;BME280;30159;49.316;8.558;2023-04-02T05:11:31;99861.81;;;10.22;100.00
44457;BME280;30159;49.316;8.558;2023-04-02T05:14:01;99865.13;;;10.19;100.00
44457;BME280;30159;49.316;8.558;2023-04-02T05:16:34;99867.00;;;10.19;100.00
44457;BME280;30159;49.316;8.558;2023-04-02T05:19:06;99875.22;;;10.08;100.00
44457;BME280;30159;49.316;8.558;2023-04-02T05:21:37;99881.63;;;10.12;100.00
44457;BME280;30159;49.316;8.558;2023-04-02T05:24:25;99880.25;;;10.15;100.00
44457;BME280;30159;49.316;8.558;2023-04-02T05:26:57;99886.94;;;10.18;100.00
44457;BME280;30159;49.316;8.558;2023-04-02T05:29:29;99884.53;;;10.16;100.00
44457;BME280;30159;49.316;8.558;2023-04-02T05:32:00;99896.06;;;10.22;100.00
44457;BME280;30159;49.316;8.558;2023-04-02T05:34:32;99888.50;;;10.24;100.00
44457;BME280;30159;49.316;8.558;2023-04-02T05:37:00;99896.53;;;10.29;100.00
44457;BME280;30159;49.316;8.558;2023-04-02T05:39:27;99896.19;;;10.36;100.00
44457;BME280;30159;49.316;8.558;2023-04-02T05:41:58;99889.44;;;10.14;100.00
44457;BME280;30159;49.316;8.558;2023-04-02T05:44:28;99907.53;;;10.32;100.00
44457;BME280;30159;49.316;8.558;2023-04-02T05:46:58;99910.41;;;10.41;100.00
44457;BME280;30159;49.316;8.558;2023-04-02T05:49:28;99874.06;;;10.15;100.00
44457;BME280;30159;49.316;8.558;2023-04-02T05:52:00;99915.44;;;10.48;100.00
44457;BME280;30159;49.316;8.558;2023-04-02T05:54:30;99923.59;;;10.43;100.00
44457;BME280;30159;49.316;8.558;2023-04-02T05:57:02;99919.88;;;10.39;100.00
44457;BME280;30159;49.316;8.558;2023-04-02T05:59:30;99915.13;;;10.30;100.00
44457;BME280;30159;49.316;8.558;2023-04-02T06:02:02;99931.16;;;10.41;100.00
44457;BME280;30159;49.316;8.558;2023-04-02T06:04:35;99929.06;;;10.38;100.00
44457;BME280;30159;49.316;8.558;2023-04-02T06:07:12;99941.44;;;10.39;100.00
44457;BME280;30159;49.316;8.558;2023-04-02T06:09:43;99945.69;;;10.45;100.00
44457;BME280;30159;49.316;8.558;2023-04-02T06:12:20;99902.84;;;10.19;100.00
44457;BME280;30159;49.316;8.558;2023-04-02T06:14:48;99951.59;;;10.47;100.00
44457;BME280;30159;49.316;8.558;2023-04-02T06:17:17;99955.06;;;10.47;100.00
44457;BME280;30159;49.316;8.558;2023-04-02T06:19:44;99958.56;;;10.48;100.00
44457;BME280;30159;49.316;8.558;2023-04-02T06:22:19;99959.72;;;10.42;100.00
44457;BME280;30159;49.316;8.558;2023-04-02T06:24:52;99942.09;;;10.30;100.00
44457;BME280;30159;49.316;8.558;2023-04-02T06:27:22;99975.25;;;10.50;100.00
44457;BME280;30159;49.316;8.558;2023-04-02T06:29:53;99975.88;;;10.42;100.00
44457;BME280;30159;49.316;8.558;2023-04-02T06:32:22;99980.78;;;10.40;100.00
44457;BME280;30159;49.316;8.558;2023-04-02T06:34:51;99983.97;;;10.42;100.00
44457;BME280;30159;49.316;8.558;2023-04-02T06:37:23;99993.09;;;10.46;100.00
44457;BME280;30159;49.316;8.558;2023-04-02T06:39:52;99994.31;;;10.59;100.00
44457;BME280;30159;49.316;8.558;2023-04-02T06:42:20;99984.25;;;10.64;100.00
44457;BME280;30159;49.316;8.558;2023-04-02T06:44:49;99982.94;;;10.81;100.00
44457;BME280;30159;49.316;8.558;2023-04-02T06:47:22;99997.97;;;10.87;100.00
44457;BME280;30159;49.316;8.558;2023-04-02T06:50:04;99963.41;;;10.70;100.00
44457;BME280;30159;49.316;8.558;2023-04-02T06:52:35;100011.19;;;11.07;100.00
44457;BME280;30159;49.316;8.558;2023-04-02T06:55:12;100011.03;;;10.99;100.00
44457;BME280;30159;49.316;8.558;2023-04-02T06:57:43;100014.84;;;11.16;100.00
44457;BME280;30159;49.316;8.558;2023-04-02T07:00:23;100024.53;;;11.17;100.00
44457;BME280;30159;49.316;8.558;2023-04-02T07:02:51;100018.63;;;10.96;100.00
44457;BME280;30159;49.316;8.558;2023-04-02T07:05:20;100029.94;;;10.99;100.00
44457;BME280;30159;49.316;8.558;2023-04-02T07:07:46;100029.50;;;11.10;100.00
44457;BME280;30159;49.316;8.558;2023-04-02T07:10:13;100031.75;;;11.03;100.00
44457;BME280;30159;49.316;8.558;2023-04-02T07:12:40;100032.13;;;11.15;100.00
44457;BME280;30159;49.316;8.558;2023-04-02T07:15:10;100039.25;;;11.06;100.00
44457;BME280;30159;49.316;8.558;2023-04-02T07:17:40;100042.75;;;11.26;100.00
44457;BME280;30159;49.316;8.558;2023-04-02T07:20:24;100039.84;;;11.41;100.00
44457;BME280;30159;49.316;8.558;2023-04-02T07:22:52;100047.13;;;11.59;100.00
44457;BME280;30159;49.316;8.558;2023-04-02T07:25:18;100058.34;;;11.67;100.00
44457;BME280;30159;49.316;8.558;2023-04-02T07:27:45;100058.63;;;11.65;100.00
44457;BME280;30159;49.316;8.558;2023-04-02T07:30:12;100067.84;;;11.64;100.00
44457;BME280;30159;49.316;8.558;2023-04-02T07:32:39;100062.06;;;11.71;100.00
44457;BME280;30159;49.316;8.558;2023-04-02T07:35:06;100068.19;;;11.76;100.00
44457;BME280;30159;49.316;8.558;2023-04-02T07:37:35;100078.47;;;11.93;100.00
44457;BME280;30159;49.316;8.558;2023-04-02T07:40:03;100068.28;;;12.04;100.00
44457;BME280;30159;49.316;8.558;2023-04-02T07:42:31;100058.75;;;11.93;100.00
44457;BME280;30159;49.316;8.558;2023-04-02T07:44:57;100085.16;;;12.15;100.00
44457;BME280;30159;49.316;8.558;2023-04-02T07:47:24;100068.25;;;11.90;100.00
44457;BME280;30159;49.316;8.558;2023-04-02T07:49:50;100082.44;;;12.15;100.00
44457;BME280;30159;49.316;8.558;2023-04-02T07:52:18;100084.13;;;12.11;100.00
44457;BME280;30159;49.316;8.558;2023-04-02T07:54:47;100103.78;;;12.30;100.00
44457;BME280;30159;49.316;8.558;2023-04-02T07:57:13;100096.00;;;12.42;100.00
44457;BME280;30159;49.316;8.558;2023-04-02T07:59:40;100103.94;;;12.53;100.00
44457;BME280;30159;49.316;8.558;2023-04-02T08:02:17;100109.84;;;12.55;100.00
44457;BME280;30159;49.316;8.558;2023-04-02T08:04:44;100117.16;;;12.54;100.00
44457;BME280;30159;49.316;8.558;2023-04-02T08:07:10;100109.63;;;12.51;100.00
44457;BME280;30159;49.316;8.558;2023-04-02T08:09:37;100113.47;;;12.64;100.00
44457;BME280;30159;49.316;8.558;2023-04-02T08:12:06;100125.69;;;12.61;100.00
44457;BME280;30159;49.316;8.558;2023-04-02T08:14:32;100118.66;;;12.60;100.00
44457;BME280;30159;49.316;8.558;2023-04-02T08:16:59;100126.47;;;12.48;100.00
44457;BME280;30159;49.316;8.558;2023-04-02T08:19:25;100133.88;;;12.42;100.00
44457;BME280;30159;49.316;8.558;2023-04-02T08:21:52;100137.34;;;12.29;100.00
44457;BME280;30159;49.316;8.558;2023-04-02T08:24:19;100134.69;;;12.43;100.00
44457;BME280;30159;49.316;8.558;2023-04-02T08:26:47;100141.81;;;12.53;100.00
44457;BME280;30159;49.316;8.558;2023-04-02T08:29:15;100124.03;;;12.47;100.00
44457;BME280;30159;49.316;8.558;2023-04-02T08:31:42;100154.78;;;12.37;100.00
44457;BME280;30159;49.316;8.558;2023-04-02T08:34:08;100155.50;;;12.56;100.00
44457;BME280;30159;49.316;8.558;2023-04-02T08:36:38;100154.63;;;12.61;100.00
44457;BME280;30159;49.316;8.558;2023-04-02T08:39:06;100161.03;;;12.65;100.00
44457;BME280;30159;49.316;8.558;2023-04-02T08:41:37;100159.34;;;12.69;100.00
44457;BME280;30159;49.316;8.558;2023-04-02T08:44:22;100167.78;;;12.81;100.00
44457;BME280;30159;49.316;8.558;2023-04-02T08:46:59;100166.19;;;12.94;100.00
44457;BME280;30159;49.316;8.558;2023-04-02T08:49:30;100180.31;;;13.19;100.00
44457;BME280;30159;49.316;8.558;2023-04-02T08:51:58;100179.94;;;13.39;100.00
44457;BME280;30159;49.316;8.558;2023-04-02T08:54:27;100181.81;;;13.53;100.00
44457;BME280;30159;49.316;8.558;2023-04-02T08:56:59;100184.66;;;13.47;100.00
44457;BME280;30159;49.316;8.558;2023-04-02T08:59:32;100196.06;;;13.58;100.00
44457;BME280;30159;49.316;8.558;2023-04-02T09:02:10;100196.44;;;13.65;100.00
44457;BME280;30159;49.316;8.558;2023-04-02T09:04:44;100198.31;;;13.79;100.00
44457;BME280;30159;49.316;8.558;2023-04-02T09:07:13;100209.91;;;13.93;100.00
44457;BME280;30159;49.316;8.558;2023-04-02T09:09:41;100206.09;;;14.17;100.00
44457;BME280;30159;49.316;8.558;2023-04-02T09:12:15;100183.81;;;14.20;100.00
44457;BME280;30159;49.316;8.558;2023-04-02T09:14:49;100210.53;;;14.35;100.00
44457;BME280;30159;49.316;8.558;2023-04-02T09:17:20;100201.13;;;14.55;100.00
44457;BME280;30159;49.316;8.558;2023-04-02T09:19:53;100221.41;;;14.80;100.00
44457;BME280;30159;49.316;8.558;2023-04-02T09:22:22;100229.06;;;14.87;100.00
44457;BME280;30159;49.316;8.558;2023-04-02T09:24:51;100220.47;;;14.93;100.00
44457;BME280;30159;49.316;8.558;2023-04-02T09:27:19;100226.78;;;15.11;100.00
44457;BME280;30159;49.316;8.558;2023-04-02T09:29:50;100233.53;;;15.14;100.00
44457;BME280;30159;49.316;8.558;2023-04-02T09:32:26;100239.47;;;15.25;100.00
44457;BME280;30159;49.316;8.558;2023-04-02T09:35:10;100246.75;;;15.07;100.00
44457;BME280;30159;49.316;8.558;2023-04-02T09:37:37;100241.53;;;15.19;100.00
44457;BME280;30159;49.316;8.558;2023-04-02T09:40:25;100243.97;;;15.38;100.00
44457;BME280;30159;49.316;8.558;2023-04-02T09:43:04;100139.38;;;14.61;98.65
44457;BME280;30159;49.316;8.558;2023-04-02T09:45:36;100260.31;;;15.47;98.34
44457;BME280;30159;49.316;8.558;2023-04-02T09:48:14;100257.03;;;15.67;99.21
44457;BME280;30159;49.316;8.558;2023-04-02T09:50:42;100255.81;;;15.99;97.63
44457;BME280;30159;49.316;8.558;2023-04-02T09:53:26;100262.69;;;15.97;93.76
44457;BME280;30159;49.316;8.558;2023-04-02T09:56:06;100264.78;;;16.00;94.93
44457;BME280;30159;49.316;8.558;2023-04-02T09:58:33;100266.06;;;16.11;91.56
44457;BME280;30159;49.316;8.558;2023-04-02T10:01:01;100261.91;;;16.22;92.32
44457;BME280;30159;49.316;8.558;2023-04-02T10:03:30;100267.31;;;16.31;94.12
44457;BME280;30159;49.316;8.558;2023-04-02T10:06:04;100271.47;;;16.63;94.20
44457;BME280;30159;49.316;8.558;2023-04-02T10:08:32;100229.69;;;16.51;88.50
44457;BME280;30159;49.316;8.558;2023-04-02T10:10:59;100276.25;;;16.75;88.83
44457;BME280;30159;49.316;8.558;2023-04-02T10:13:30;100291.69;;;16.28;86.59
44457;BME280;30159;49.316;8.558;2023-04-02T10:16:02;100289.75;;;16.19;87.26
44457;BME280;30159;49.316;8.558;2023-04-02T10:18:38;100285.94;;;15.63;89.69
44457;BME280;30159;49.316;8.558;2023-04-02T10:21:09;100277.47;;;15.16;91.76
44457;BME280;30159;49.316;8.558;2023-04-02T10:23:37;100291.41;;;15.23;91.16
44457;BME280;30159;49.316;8.558;2023-04-02T10:26:17;100302.56;;;15.53;92.66
44457;BME280;30159;49.316;8.558;2023-04-02T10:28:59;100299.97;;;15.88;89.82
44457;BME280;30159;49.316;8.558;2023-04-02T10:31:33;100311.13;;;15.77;89.83
44457;BME280;30159;49.316;8.558;2023-04-02T10:34:07;100301.47;;;15.63;88.03
44457;BME280;30159;49.316;8.558;2023-04-02T10:36:45;100282.84;;;15.38;88.99
44457;BME280;30159;49.316;8.558;2023-04-02T10:39:17;100308.06;;;15.30;90.79
44457;BME280;30159;49.316;8.558;2023-04-02T10:41:48;100309.09;;;15.12;91.80
44457;BME280;30159;49.316;8.558;2023-04-02T10:44:34;100305.31;;;14.90;89.24
44457;BME280;30159;49.316;8.558;2023-04-02T10:47:21;100308.94;;;14.86;93.17
44457;BME280;30159;49.316;8.558;2023-04-02T10:49:59;100316.41;;;15.43;90.87
44457;BME280;30159;49.316;8.558;2023-04-02T10:52:30;100321.84;;;15.34;89.18
44457;BME280;30159;49.316;8.558;2023-04-02T10:55:00;100312.34;;;15.23;89.58
44457;BME280;30159;49.316;8.558;2023-04-02T10:57:33;100319.19;;;15.51;89.27
44457;BME280;30159;49.316;8.558;2023-04-02T11:00:07;100321.25;;;15.86;88.50
44457;BME280;30159;49.316;8.558;2023-04-02T11:02:46;100326.75;;;16.90;87.82
44457;BME280;30159;49.316;8.558;2023-04-02T11:05:21;100321.41;;;17.49;80.41
44457;BME280;30159;49.316;8.558;2023-04-02T11:07:55;100322.53;;;17.01;78.07
44457;BME280;30159;49.316;8.558;2023-04-02T11:10:22;100339.06;;;16.61;79.55
44457;BME280;30159;49.316;8.558;2023-04-02T11:12:55;100323.84;;;16.26;82.65
44457;BME280;30159;49.316;8.558;2023-04-02T11:15:24;100337.38;;;15.73;85.38
44457;BME280;30159;49.316;8.558;2023-04-02T11:17:52;100335.25;;;15.30;86.68
44457;BME280;30159;49.316;8.558;2023-04-02T11:23:31;100337.66;;;15.41;85.56
44457;BME280;30159;49.316;8.558;2023-04-02T11:26:30;100347.16;;;15.52;85.10
44457;BME280;30159;49.316;8.558;2023-04-02T11:29:05;100342.53;;;15.21;85.40
44457;BME280;30159;49.316;8.558;2023-04-02T11:31:34;100355.56;;;15.33;86.81
44457;BME280;30159;49.316;8.558;2023-04-02T11:34:02;100349.22;;;15.15;86.28
44457;BME280;30159;49.316;8.558;2023-04-02T11:37:01;100359.91;;;15.11;89.63
44457;BME280;30159;49.316;8.558;2023-04-02T11:39:45;100365.69;;;13.87;98.13
44457;BME280;30159;49.316;8.558;2023-04-02T11:42:26;100375.41;;;12.62;100.00
44457;BME280;30159;49.316;8.558;2023-04-02T11:44:54;100350.56;;;11.98;100.00
44457;BME280;30159;49.316;8.558;2023-04-02T11:47:22;100396.03;;;11.96;100.00
44457;BME280;30159;49.316;8.558;2023-04-02T11:50:03;100408.75;;;11.66;100.00
44457;BME280;30159;49.316;8.558;2023-04-02T11:52:49;100401.81;;;11.31;100.00
44457;BME280;30159;49.316;8.558;2023-04-02T11:55:29;100403.03;;;11.14;100.00
44457;BME280;30159;49.316;8.558;2023-04-02T11:58:23;100408.13;;;11.16;100.00
44457;BME280;30159;49.316;8.558;2023-04-02T12:07:30;100415.78;;;11.38;100.00
44457;BME280;30159;49.316;8.558;2023-04-02T12:10:02;100418.31;;;11.58;100.00
44457;BME280;30159;49.316;8.558;2023-04-02T12:12:33;100423.31;;;11.70;100.00
44457;BME280;30159;49.316;8.558;2023-04-02T12:15:03;100431.28;;;11.56;100.00
44457;BME280;30159;49.316;8.558;2023-04-02T12:17:34;100428.28;;;11.29;100.00
44457;BME280;30159;49.316;8.558;2023-04-02T12:20:03;100436.63;;;11.32;100.00
44457;BME280;30159;49.316;8.558;2023-04-02T12:22:49;100452.09;;;11.22;100.00
44457;BME280;30159;49.316;8.558;2023-04-02T12:25:24;100452.34;;;11.25;100.00
44457;BME280;30159;49.316;8.558;2023-04-02T12:28:13;100454.06;;;11.11;100.00
44457;BME280;30159;49.316;8.558;2023-04-02T12:30:42;100459.75;;;11.09;100.00
44457;BME280;30159;49.316;8.558;2023-04-02T12:33:24;100461.50;;;10.90;100.00
44457;BME280;30159;49.316;8.558;2023-04-02T12:35:54;100468.84;;;10.79;100.00
44457;BME280;30159;49.316;8.558;2023-04-02T12:38:25;100474.47;;;10.88;100.00
44457;BME280;30159;49.316;8.558;2023-04-02T12:40:53;100489.28;;;10.90;100.00
44457;BME280;30159;49.316;8.558;2023-04-02T12:43:27;100490.13;;;10.86;100.00
44457;BME280;30159;49.316;8.558;2023-04-02T12:45:55;100501.03;;;10.65;100.00
44457;BME280;30159;49.316;8.558;2023-04-02T12:48:23;100505.44;;;10.25;100.00
44457;BME280;30159;49.316;8.558;2023-04-02T12:50:51;100503.91;;;10.04;100.00
44457;BME280;30159;49.316;8.558;2023-04-02T12:53:20;100514.41;;;10.05;100.00
44457;BME280;30159;49.316;8.558;2023-04-02T12:55:51;100511.16;;;10.13;100.00
44457;BME280;30159;49.316;8.558;2023-04-02T12:58:25;100518.44;;;10.23;100.00
44457;BME280;30159;49.316;8.558;2023-04-02T13:00:51;100520.59;;;10.21;100.00
44457;BME280;30159;49.316;8.558;2023-04-02T13:03:20;100523.81;;;10.28;100.00
44457;BME280;30159;49.316;8.558;2023-04-02T13:05:51;100527.56;;;10.32;100.00
44457;BME280;30159;49.316;8.558;2023-04-02T13:08:22;100536.47;;;10.38;100.00
44457;BME280;30159;49.316;8.558;2023-04-02T13:10:55;100537.25;;;10.39;100.00
44457;BME280;30159;49.316;8.558;2023-04-02T13:13:27;100535.38;;;10.39;100.00
44457;BME280;30159;49.316;8.558;2023-04-02T13:16:07;100539.41;;;10.47;100.00
44457;BME280;30159;49.316;8.558;2023-04-02T13:18:48;100553.06;;;10.71;100.00
44457;BME280;30159;49.316;8.558;2023-04-02T13:21:23;100542.75;;;10.83;100.00
44457;BME280;30159;49.316;8.558;2023-04-02T13:23:51;100543.63;;;10.73;100.00
44457;BME280;30159;49.316;8.558;2023-04-02T13:26:21;100543.88;;;10.77;100.00
44457;BME280;30159;49.316;8.558;2023-04-02T13:28:56;100548.44;;;10.76;100.00